AirNav   Air Wisconsin Up To $57,000 Bonus
 
 535 users online  

23GA Hartrampf Heliport
Sandy Springs, Georgia, USA

GOING TO SANDY SPRINGS?


FAA INFORMATION EFFECTIVE 20 MAY 2021

Location

FAA Identifier: 23GA
Lat/Long: 33-59-22.3600N 084-19-55.7300W
33-59.372667N 084-19.928833W
33.9895444,-84.3321472
(estimated)
Elevation: 1038 ft. / 316 m (estimated)
Variation: 02W (1985)
From city: 5 miles NE of SANDY SPRINGS, GA
Time zone: UTC -4 (UTC -5 during Standard Time)
Zip code: 30350

Heliport Operations

Heliport use: Private use. Permission required prior to landing
Activation date: 11/1988
Control tower: no
ARTCC: ATLANTA CENTER
FSS: MACON FLIGHT SERVICE STATION
Attendance: UNATNDD
Wind indicator: no
Segmented circle: no

Heliport Communications

WX ASOS at PDK (7 nm S): 128.4 (770-457-1691)
WX AWOS-3PT at RYY (13 nm W): PHONE 770-425-3406
WX ASOS at FTY (16 nm SW): PHONE 404-696-5660
WX AWOS-3PT at LZU (18 nm E): 132.275 (770-339-7753)
WX AWOS-3 at CNI (20 nm N): 119.825 (770-704-6235)

Nearby radio navigation aids

VOR radial/distance  VOR name  Freq  Var
PDKr351/7.0PEACHTREE VOR/DME116.6005W
ATLr018/22.2ATLANTA VORTAC116.9005W

 
NDB name  Hdg/Dist  Freq  Var  ID
CHERO159/17.641505WDJD -.. .--- -..
FLOWERY BRANCH242/24.736503WFKV ..-. -.- ...-
ALCOVY311/34.937003WVOF ...- --- ..-.
BARROW COUNTY280/37.140405WBMW -... -- .--

Heliport Services

Runway Information

Helipad H1

Dimensions: 100 x 100 ft. / 30 x 30 m
Surface: turf
Traffic pattern: leftleft

Heliport Ownership and Management from official FAA records

Ownership: Privately-owned
Owner: JOHN HARTRAMPF
1672 HUNTINGDON TRAIL
SANDY SPRINGS, GA 30350
Phone 770-490-0927
OTR CTC JACK HARTRAMPF 404-983-7167 JACK@ACTIONOUTDOOR.COM

Heliport Operational Statistics

Aircraft based on the field: 1
Helicopters: 1
    

Additional Remarks

FOR CD CTC ATLANTA APCH AT 678-364-6131.

Instrument Procedures

There are no published instrument procedures at 23GA.

Some nearby airports with instrument procedures:

KPDK - Dekalb-Peachtree Airport (7 nm S)
KMGE - Dobbins ARB Airport (10 nm SW)
KRYY - Cobb County International Airport-McCollum Field (13 nm W)
KFTY - Fulton County Executive Airport/Charlie Brown Field (16 nm SW)
KLZU - Gwinnett County Airport-Briscoe Field (18 nm E)
KCNI - Cherokee County Regional Airport (20 nm N)
 
Loc | Ops | Rwys | IFR | FBO | Links
Com | Nav | Svcs | Stats | Notes
Area around 23GA (Hartrampf Heliport)
 
Road maps at: MapQuest Bing Google
 
Aerial photo
No photo
 
Sectional chart

 
Airport distance calculator
Flying to Hartrampf Heliport? Find the distance to fly.

From to 23GA

Sunrise and sunset
Times for 15-Jun-2021
 Local
(UTC-4)
 Zulu
(UTC)
Morning civil twilight05:5709:57
Sunrise06:2710:27
Sunset20:4900:49
Evening civil twilight21:1801:18

Current date and time
Zulu (UTC)  15-Jun-2021 10:44:29
Local (UTC-4)  15-Jun-2021 06:44:29
 
METAR
KPDK 
7nm S 
150953Z AUTO 32007KT 10SM CLR 22/18 A2990 RMK AO2 SLP106 T02220183
KMGE 
10nm SW 
150956Z AUTO 29006KT 10SM CLR 22/19 A2991 RMK AO2 SLP117 T02150189 $
KRYY 
13nm W 
150950Z AUTO 29003KT 10SM CLR 22/19 A2993 RMK AO2 SLP854 T02170194 PNO $
KFTY 
15nm SW 
150953Z 00000KT 10SM CLR 22/18 A2990 RMK AO2 SLP115 T02220183
KLZU 
18nm E 
150956Z AUTO 00000KT 10SM CLR 21/18 A2990 RMK AO2 SLP126 T02110183
KCNI 
20nm N 
151035Z AUTO 00000KT 10SM CLR 21/17 A2993 RMK AO2
TAF
KPDK 
7nm S 
150531Z 1506/1606 00000KT P6SM SKC FM151000 30004KT P6SM SKC FM151300 31007KT P6SM FEW250 FM151600 31010G18KT P6SM FEW250 FM152300 33010G20KT P6SM SKC FM160200 34007KT P6SM SKC
KMGE 
10nm SW 
150500Z 1505/1611 31006KT 9999 FEW060 QNH2990INS BECMG 1515/1516 34009KT 8000 -SHRA BKN040 QNH2989INS BECMG 1520/1521 32012KT 9999 NSW FEW060 QNH2991INS BECMG 1602/1603 VRB06KT 9999 SKC QNH2996INS TX30/1520Z TN17/1511Z
KRYY 
13nm W 
150531Z 1506/1606 25005KT P6SM SKC FM151100 30004KT P6SM FEW250 FM151400 31008KT P6SM FEW250 FM151900 33010G20KT P6SM SKC FM160000 34008KT P6SM SKC FM160300 34005KT P6SM SKC
KFTY 
15nm SW 
150531Z 1506/1606 00000KT P6SM SKC FM151200 31005KT P6SM FEW250 FM151400 32007KT P6SM FEW250 FM151700 32010G20KT P6SM FEW250 FM160000 33008KT P6SM SKC FM160500 34004KT P6SM SKC
NOTAMs
Click for the latest NOTAMs
NOTAMs are issued by the DoD/FAA and will open in a separate window not controlled by AirNav.

 

 
 

Would you like to see your business listed on this page?

 If your business provides an interesting product or service to pilots, flight crews, aircraft, or users of the Hartrampf Heliport, you should consider listing it here.  To start the listing process, click on the button below
 
Add a business
 

Other Pages about Hartrampf Heliport

Update a link
 
Copyright © AirNav, LLC. All rights reserved. Privacy Policy  Contact